sensor_id;sensor_type;location;lat;lon;timestamp;pressure;altitude;pressure_sealevel;temperature;humidity
63946;BME280;50122;56.330;43.838;2022-08-21T00:00:26;102221.09;;;13.26;71.35
63946;BME280;50122;56.330;43.838;2022-08-21T00:03:02;102200.19;;;13.12;71.38
63946;BME280;50122;56.330;43.838;2022-08-21T00:05:30;102210.66;;;13.18;71.57
63946;BME280;50122;56.330;43.838;2022-08-21T00:07:58;102222.16;;;13.18;71.82
63946;BME280;50122;56.330;43.838;2022-08-21T00:10:25;102221.28;;;13.18;72.23
63946;BME280;50122;56.330;43.838;2022-08-21T00:12:52;102213.41;;;13.15;72.57
63946;BME280;50122;56.330;43.838;2022-08-21T00:15:23;102195.16;;;12.99;72.48
63946;BME280;50122;56.330;43.838;2022-08-21T00:17:50;102221.44;;;13.12;72.81
63946;BME280;50122;56.330;43.838;2022-08-21T00:20:17;102213.59;;;13.07;72.76
63946;BME280;50122;56.330;43.838;2022-08-21T00:22:44;102218.03;;;13.05;72.69
63946;BME280;50122;56.330;43.838;2022-08-21T00:25:12;102219.00;;;13.01;73.04
63946;BME280;50122;56.330;43.838;2022-08-21T00:27:40;102211.19;;;12.95;72.91
63946;BME280;50122;56.330;43.838;2022-08-21T00:30:10;102220.09;;;12.92;73.02
63946;BME280;50122;56.330;43.838;2022-08-21T00:32:48;102211.38;;;12.87;73.17
63946;BME280;50122;56.330;43.838;2022-08-21T00:35:20;102208.00;;;12.80;73.43
63946;BME280;50122;56.330;43.838;2022-08-21T00:37:47;102200.06;;;12.79;73.61
63946;BME280;50122;56.330;43.838;2022-08-21T00:40:17;102216.84;;;12.79;73.54
63946;BME280;50122;56.330;43.838;2022-08-21T00:42:45;102220.50;;;12.74;73.34
63946;BME280;50122;56.330;43.838;2022-08-21T00:45:22;102211.00;;;12.63;73.48
63946;BME280;50122;56.330;43.838;2022-08-21T00:47:51;102221.66;;;12.62;73.78
63946;BME280;50122;56.330;43.838;2022-08-21T00:50:19;102226.03;;;12.64;73.95
63946;BME280;50122;56.330;43.838;2022-08-21T00:52:47;102226.09;;;12.61;73.71
63946;BME280;50122;56.330;43.838;2022-08-21T00:55:15;102224.44;;;12.56;74.06
63946;BME280;50122;56.330;43.838;2022-08-21T00:57:46;102228.09;;;12.50;74.14
63946;BME280;50122;56.330;43.838;2022-08-21T01:00:25;102233.44;;;12.48;74.20
63946;BME280;50122;56.330;43.838;2022-08-21T01:02:57;102205.50;;;12.30;73.58
63946;BME280;50122;56.330;43.838;2022-08-21T01:05:24;102240.63;;;12.42;74.11
63946;BME280;50122;56.330;43.838;2022-08-21T01:07:51;102229.25;;;12.37;74.23
63946;BME280;50122;56.330;43.838;2022-08-21T01:10:19;102233.59;;;12.39;74.13
63946;BME280;50122;56.330;43.838;2022-08-21T01:12:52;102234.59;;;12.35;74.22
63946;BME280;50122;56.330;43.838;2022-08-21T01:15:22;102228.53;;;12.28;74.45
63946;BME280;50122;56.330;43.838;2022-08-21T01:17:50;102220.66;;;12.25;74.46
63946;BME280;50122;56.330;43.838;2022-08-21T01:20:17;102236.56;;;12.25;74.23
63946;BME280;50122;56.330;43.838;2022-08-21T01:22:45;102238.38;;;12.22;74.49
63946;BME280;50122;56.330;43.838;2022-08-21T01:25:14;102233.09;;;12.20;75.08
63946;BME280;50122;56.330;43.838;2022-08-21T01:27:42;102234.03;;;12.19;75.17
63946;BME280;50122;56.330;43.838;2022-08-21T01:30:14;102235.00;;;12.15;75.13
63946;BME280;50122;56.330;43.838;2022-08-21T01:32:41;102221.16;;;11.99;74.91
63946;BME280;50122;56.330;43.838;2022-08-21T01:35:11;102248.31;;;12.12;75.11
63946;BME280;50122;56.330;43.838;2022-08-21T01:37:39;102251.81;;;12.12;75.37
63946;BME280;50122;56.330;43.838;2022-08-21T01:40:07;102248.34;;;12.10;75.37
63946;BME280;50122;56.330;43.838;2022-08-21T01:42:35;102241.31;;;12.08;75.60
63946;BME280;50122;56.330;43.838;2022-08-21T01:45:03;102240.44;;;12.06;75.82
63946;BME280;50122;56.330;43.838;2022-08-21T01:47:30;102251.91;;;12.08;76.09
63946;BME280;50122;56.330;43.838;2022-08-21T01:49:57;102225.59;;;11.97;75.98
63946;BME280;50122;56.330;43.838;2022-08-21T01:52:24;102245.72;;;12.07;76.08
63946;BME280;50122;56.330;43.838;2022-08-21T01:54:51;102243.97;;;12.08;76.01
63946;BME280;50122;56.330;43.838;2022-08-21T01:57:21;102241.34;;;12.06;75.80
63946;BME280;50122;56.330;43.838;2022-08-21T01:59:52;102224.84;;;11.89;75.69
63946;BME280;50122;56.330;43.838;2022-08-21T02:02:18;102227.44;;;11.93;75.74
63946;BME280;50122;56.330;43.838;2022-08-21T02:04:45;102240.50;;;12.03;76.02
63946;BME280;50122;56.330;43.838;2022-08-21T02:07:12;102247.44;;;12.10;76.16
63946;BME280;50122;56.330;43.838;2022-08-21T02:09:39;102225.47;;;12.05;76.06
63946;BME280;50122;56.330;43.838;2022-08-21T02:12:10;102240.28;;;12.15;76.33
63946;BME280;50122;56.330;43.838;2022-08-21T02:14:38;102245.50;;;12.20;76.49
63946;BME280;50122;56.330;43.838;2022-08-21T02:17:05;102222.72;;;12.09;76.52
63946;BME280;50122;56.330;43.838;2022-08-21T02:19:36;102230.44;;;12.20;76.76
63946;BME280;50122;56.330;43.838;2022-08-21T02:22:10;102239.13;;;12.28;76.70
63946;BME280;50122;56.330;43.838;2022-08-21T02:24:37;102228.56;;;12.27;77.17
63946;BME280;50122;56.330;43.838;2022-08-21T02:27:24;102238.06;;;12.37;77.32
63946;BME280;50122;56.330;43.838;2022-08-21T02:29:56;102234.41;;;12.44;77.36
63946;BME280;50122;56.330;43.838;2022-08-21T02:32:24;102239.59;;;12.49;77.50
63946;BME280;50122;56.330;43.838;2022-08-21T02:34:52;102234.19;;;12.54;77.70
63946;BME280;50122;56.330;43.838;2022-08-21T02:37:22;102236.75;;;12.60;77.85
63946;BME280;50122;56.330;43.838;2022-08-21T02:39:49;102238.44;;;12.64;77.83
63946;BME280;50122;56.330;43.838;2022-08-21T02:42:16;102239.25;;;12.66;77.92
63946;BME280;50122;56.330;43.838;2022-08-21T02:44:43;102237.38;;;12.71;77.93
63946;BME280;50122;56.330;43.838;2022-08-21T02:47:10;102241.72;;;12.74;77.69
63946;BME280;50122;56.330;43.838;2022-08-21T02:49:37;102231.19;;;12.71;77.99
63946;BME280;50122;56.330;43.838;2022-08-21T02:52:03;102234.63;;;12.76;77.98
63946;BME280;50122;56.330;43.838;2022-08-21T02:54:33;102239.75;;;12.83;78.04
63946;BME280;50122;56.330;43.838;2022-08-21T02:57:00;102238.84;;;12.84;78.09
63946;BME280;50122;56.330;43.838;2022-08-21T02:59:27;102240.50;;;12.90;78.04
63946;BME280;50122;56.330;43.838;2022-08-21T03:01:53;102243.06;;;12.95;78.14
63946;BME280;50122;56.330;43.838;2022-08-21T03:04:21;102238.44;;;13.03;78.17
63946;BME280;50122;56.330;43.838;2022-08-21T03:06:48;102234.00;;;13.03;78.17
63946;BME280;50122;56.330;43.838;2022-08-21T03:09:15;102238.22;;;13.12;78.14
63946;BME280;50122;56.330;43.838;2022-08-21T03:11:42;102240.72;;;13.18;78.22
63946;BME280;50122;56.330;43.838;2022-08-21T03:14:09;102222.22;;;13.15;77.74
63946;BME280;50122;56.330;43.838;2022-08-21T03:16:36;102226.44;;;13.24;77.79
63946;BME280;50122;56.330;43.838;2022-08-21T03:19:03;102230.72;;;13.30;77.52
63946;BME280;50122;56.330;43.838;2022-08-21T03:21:29;102200.97;;;13.15;77.85
63946;BME280;50122;56.330;43.838;2022-08-21T03:23:56;102240.28;;;13.38;77.76
63946;BME280;50122;56.330;43.838;2022-08-21T03:26:23;102243.69;;;13.45;77.90
63946;BME280;50122;56.330;43.838;2022-08-21T03:28:53;102236.56;;;13.46;77.89
63946;BME280;50122;56.330;43.838;2022-08-21T03:31:19;102236.50;;;13.49;77.42
63946;BME280;50122;56.330;43.838;2022-08-21T03:33:47;102240.78;;;13.54;77.41
63946;BME280;50122;56.330;43.838;2022-08-21T03:36:15;102237.94;;;13.62;77.18
63946;BME280;50122;56.330;43.838;2022-08-21T03:38:42;102239.63;;;13.65;77.36
63946;BME280;50122;56.330;43.838;2022-08-21T03:41:08;102238.69;;;13.67;77.65
63946;BME280;50122;56.330;43.838;2022-08-21T03:43:35;102249.09;;;13.77;77.64
63946;BME280;50122;56.330;43.838;2022-08-21T03:46:03;102255.09;;;13.83;77.30
63946;BME280;50122;56.330;43.838;2022-08-21T03:48:33;102247.09;;;13.85;77.18
63946;BME280;50122;56.330;43.838;2022-08-21T03:51:01;102253.00;;;13.96;77.31
63946;BME280;50122;56.330;43.838;2022-08-21T03:53:28;102249.31;;;14.02;77.39
63946;BME280;50122;56.330;43.838;2022-08-21T03:55:56;102237.91;;;13.98;77.14
63946;BME280;50122;56.330;43.838;2022-08-21T03:58:26;102248.09;;;14.14;77.39
63946;BME280;50122;56.330;43.838;2022-08-21T04:00:56;102237.38;;;14.17;77.12
63946;BME280;50122;56.330;43.838;2022-08-21T04:03:24;102252.19;;;14.27;76.93
63946;BME280;50122;56.330;43.838;2022-08-21T04:05:51;102245.03;;;14.29;76.84
63946;BME280;50122;56.330;43.838;2022-08-21T04:08:18;102247.41;;;14.38;76.77
63946;BME280;50122;56.330;43.838;2022-08-21T04:10:47;102201.09;;;14.16;76.57
63946;BME280;50122;56.330;43.838;2022-08-21T04:13:17;102237.53;;;14.44;76.18
63946;BME280;50122;56.330;43.838;2022-08-21T17:13:25;101828.22;;;23.96;42.69
63946;BME280;50122;56.330;43.838;2022-08-21T17:15:53;101832.25;;;23.90;42.68
63946;BME280;50122;56.330;43.838;2022-08-21T17:18:22;101840.78;;;23.84;42.43
63946;BME280;50122;56.330;43.838;2022-08-21T17:20:50;101838.56;;;23.78;42.63
63946;BME280;50122;56.330;43.838;2022-08-21T17:23:19;101837.72;;;23.78;42.77
63946;BME280;50122;56.330;43.838;2022-08-21T17:25:49;101838.03;;;23.73;43.06
63946;BME280;50122;56.330;43.838;2022-08-21T17:28:25;101844.06;;;23.76;42.59
63946;BME280;50122;56.330;43.838;2022-08-21T17:30:55;101847.50;;;23.79;42.71
63946;BME280;50122;56.330;43.838;2022-08-21T17:33:24;101841.03;;;23.81;42.63
63946;BME280;50122;56.330;43.838;2022-08-21T17:35:53;101834.47;;;23.72;42.55
63946;BME280;50122;56.330;43.838;2022-08-21T17:38:20;101844.19;;;23.75;42.42
63946;BME280;50122;56.330;43.838;2022-08-21T17:40:47;101830.41;;;23.67;43.40
63946;BME280;50122;56.330;43.838;2022-08-21T17:43:14;101841.06;;;23.68;43.12
63946;BME280;50122;56.330;43.838;2022-08-21T17:45:42;101832.59;;;23.62;43.01
63946;BME280;50122;56.330;43.838;2022-08-21T17:48:10;101844.25;;;23.62;43.16
63946;BME280;50122;56.330;43.838;2022-08-21T17:50:38;101834.13;;;23.53;43.47
63946;BME280;50122;56.330;43.838;2022-08-21T17:53:05;101811.00;;;23.37;43.24
63946;BME280;50122;56.330;43.838;2022-08-21T17:55:32;101788.31;;;23.16;43.96
63946;BME280;50122;56.330;43.838;2022-08-21T17:57:59;101832.13;;;23.44;44.04
63946;BME280;50122;56.330;43.838;2022-08-21T18:00:28;101832.03;;;23.32;44.40
63946;BME280;50122;56.330;43.838;2022-08-21T18:03:06;101842.94;;;23.31;44.28
63946;BME280;50122;56.330;43.838;2022-08-21T18:05:34;101841.56;;;23.25;44.86
63946;BME280;50122;56.330;43.838;2022-08-21T18:08:01;101829.72;;;23.15;45.13
63946;BME280;50122;56.330;43.838;2022-08-21T18:10:28;101847.84;;;23.13;45.24
63946;BME280;50122;56.330;43.838;2022-08-21T18:12:56;101848.13;;;23.08;45.69
63946;BME280;50122;56.330;43.838;2022-08-21T18:15:23;101845.03;;;23.01;46.26
63946;BME280;50122;56.330;43.838;2022-08-21T18:17:51;101839.31;;;22.93;46.64
63946;BME280;50122;56.330;43.838;2022-08-21T18:20:19;101847.41;;;22.93;46.58
63946;BME280;50122;56.330;43.838;2022-08-21T18:22:48;101842.69;;;22.84;46.59
63946;BME280;50122;56.330;43.838;2022-08-21T18:27:43;101840.84;;;22.71;47.46
63946;BME280;50122;56.330;43.838;2022-08-21T18:30:18;101845.72;;;22.66;47.16
63946;BME280;50122;56.330;43.838;2022-08-21T18:32:46;101841.41;;;22.64;47.74
63946;BME280;50122;56.330;43.838;2022-08-21T18:35:14;101845.41;;;22.58;48.61
63946;BME280;50122;56.330;43.838;2022-08-21T18:37:42;101841.84;;;22.58;48.89
63946;BME280;50122;56.330;43.838;2022-08-21T18:40:09;101832.34;;;22.52;49.14
63946;BME280;50122;56.330;43.838;2022-08-21T18:42:45;101849.69;;;22.48;48.95
63946;BME280;50122;56.330;43.838;2022-08-21T18:45:24;101827.66;;;22.28;49.77
63946;BME280;50122;56.330;43.838;2022-08-21T18:47:52;101804.78;;;22.08;49.26
63946;BME280;50122;56.330;43.838;2022-08-21T18:50:23;101849.78;;;22.33;49.24
63946;BME280;50122;56.330;43.838;2022-08-21T18:52:52;101849.19;;;22.28;49.21
63946;BME280;50122;56.330;43.838;2022-08-21T18:55:22;101839.19;;;22.17;49.93
63946;BME280;50122;56.330;43.838;2022-08-21T18:57:50;101846.28;;;22.18;50.66
63946;BME280;50122;56.330;43.838;2022-08-21T19:00:29;101848.66;;;22.10;50.83
63946;BME280;50122;56.330;43.838;2022-08-21T19:02:56;101841.06;;;22.02;51.76
63946;BME280;50122;56.330;43.838;2022-08-21T19:05:24;101837.06;;;21.95;51.25
63946;BME280;50122;56.330;43.838;2022-08-21T19:07:52;101853.22;;;21.95;51.41
63946;BME280;50122;56.330;43.838;2022-08-21T19:10:21;101847.50;;;21.87;51.14
63946;BME280;50122;56.330;43.838;2022-08-21T19:13:11;101842.41;;;21.82;51.53
63946;BME280;50122;56.330;43.838;2022-08-21T19:15:41;101853.28;;;21.81;51.95
63946;BME280;50122;56.330;43.838;2022-08-21T19:18:11;101847.34;;;21.76;51.77
63946;BME280;50122;56.330;43.838;2022-08-21T19:20:40;101840.34;;;21.73;52.07
63946;BME280;50122;56.330;43.838;2022-08-21T19:23:10;101851.22;;;21.72;52.06
63946;BME280;50122;56.330;43.838;2022-08-21T19:25:39;101840.88;;;21.65;52.55
63946;BME280;50122;56.330;43.838;2022-08-21T19:28:10;101830.78;;;21.55;52.44
63946;BME280;50122;56.330;43.838;2022-08-21T19:30:41;101834.38;;;21.55;52.74
63946;BME280;50122;56.330;43.838;2022-08-21T19:33:19;101848.06;;;21.50;53.51
63946;BME280;50122;56.330;43.838;2022-08-21T19:36:08;101838.75;;;21.42;53.43
63946;BME280;50122;56.330;43.838;2022-08-21T19:38:36;101833.78;;;21.36;53.89
63946;BME280;50122;56.330;43.838;2022-08-21T19:41:06;101840.13;;;21.34;54.58
63946;BME280;50122;56.330;43.838;2022-08-21T19:43:42;101837.84;;;21.28;54.51
63946;BME280;50122;56.330;43.838;2022-08-21T19:46:11;101812.25;;;21.08;55.14
63946;BME280;50122;56.330;43.838;2022-08-21T19:48:42;101838.44;;;21.19;55.62
63946;BME280;50122;56.330;43.838;2022-08-21T19:51:12;101836.91;;;21.15;55.78
63946;BME280;50122;56.330;43.838;2022-08-21T19:53:39;101845.19;;;21.12;56.21
63946;BME280;50122;56.330;43.838;2022-08-21T19:56:07;101812.75;;;20.86;57.00
63946;BME280;50122;56.330;43.838;2022-08-21T19:58:39;101843.44;;;20.96;56.88
63946;BME280;50122;56.330;43.838;2022-08-21T20:01:08;101831.66;;;20.85;57.32
63946;BME280;50122;56.330;43.838;2022-08-21T20:03:44;101829.44;;;20.77;57.52
63946;BME280;50122;56.330;43.838;2022-08-21T20:06:31;101836.84;;;20.73;58.01
63946;BME280;50122;56.330;43.838;2022-08-21T20:09:00;101839.81;;;20.69;58.07
63946;BME280;50122;56.330;43.838;2022-08-21T20:11:45;101838.34;;;20.63;58.64
63946;BME280;50122;56.330;43.838;2022-08-21T20:14:17;101843.22;;;20.56;59.04
63946;BME280;50122;56.330;43.838;2022-08-21T20:16:46;101806.38;;;20.29;59.18
63946;BME280;50122;56.330;43.838;2022-08-21T20:19:18;101842.25;;;20.43;59.59
63946;BME280;50122;56.330;43.838;2022-08-21T20:21:45;101831.28;;;20.32;59.49
63946;BME280;50122;56.330;43.838;2022-08-21T20:24:12;101838.56;;;20.29;59.57
63946;BME280;50122;56.330;43.838;2022-08-21T20:27:01;101842.41;;;20.25;59.77
63946;BME280;50122;56.330;43.838;2022-08-21T20:29:32;101843.53;;;20.21;60.18
63946;BME280;50122;56.330;43.838;2022-08-21T20:32:05;101829.22;;;20.06;60.23
63946;BME280;50122;56.330;43.838;2022-08-21T20:34:38;101839.94;;;20.06;60.72
63946;BME280;50122;56.330;43.838;2022-08-21T20:37:05;101836.84;;;19.98;60.79
63946;BME280;50122;56.330;43.838;2022-08-21T20:39:34;101844.09;;;19.96;61.59
63946;BME280;50122;56.330;43.838;2022-08-21T20:42:03;101848.19;;;19.87;61.90
63946;BME280;50122;56.330;43.838;2022-08-21T20:44:32;101853.16;;;19.79;61.99
63946;BME280;50122;56.330;43.838;2022-08-21T20:47:01;101854.44;;;19.72;62.51
63946;BME280;50122;56.330;43.838;2022-08-21T20:49:41;101849.06;;;19.72;62.46
63946;BME280;50122;56.330;43.838;2022-08-21T20:52:13;101851.31;;;19.64;62.87
63946;BME280;50122;56.330;43.838;2022-08-21T20:54:52;101858.66;;;19.60;62.87
63946;BME280;50122;56.330;43.838;2022-08-21T20:57:30;101810.50;;;19.26;63.70
63946;BME280;50122;56.330;43.838;2022-08-21T21:00:04;101853.16;;;19.47;63.39
63946;BME280;50122;56.330;43.838;2022-08-21T21:02:45;101852.38;;;19.45;63.26
63946;BME280;50122;56.330;43.838;2022-08-21T21:05:23;101858.53;;;19.47;63.00
63946;BME280;50122;56.330;43.838;2022-08-21T21:07:56;101859.47;;;19.46;63.53
63946;BME280;50122;56.330;43.838;2022-08-21T21:10:48;101861.44;;;19.42;63.14
63946;BME280;50122;56.330;43.838;2022-08-21T21:16:20;101851.34;;;19.32;63.60
63946;BME280;50122;56.330;43.838;2022-08-21T21:19:01;101855.91;;;19.30;63.81
63946;BME280;50122;56.330;43.838;2022-08-21T21:21:46;101857.03;;;19.25;64.31
63946;BME280;50122;56.330;43.838;2022-08-21T21:24:48;101851.91;;;19.21;64.37
63946;BME280;50122;56.330;43.838;2022-08-21T21:27:41;101865.22;;;19.22;64.31
63946;BME280;50122;56.330;43.838;2022-08-21T21:32:46;101842.38;;;18.99;65.09
63946;BME280;50122;56.330;43.838;2022-08-21T21:35:15;101859.00;;;19.06;65.88
63946;BME280;50122;56.330;43.838;2022-08-21T21:38:46;101866.41;;;19.01;65.45
63946;BME280;50122;56.330;43.838;2022-08-21T21:41:51;101865.09;;;18.92;65.67
63946;BME280;50122;56.330;43.838;2022-08-21T21:44:50;101862.56;;;18.89;66.36
63946;BME280;50122;56.330;43.838;2022-08-21T21:53:35;101868.66;;;18.75;66.89
63946;BME280;50122;56.330;43.838;2022-08-21T22:08:02;101878.84;;;18.51;67.46
63946;BME280;50122;56.330;43.838;2022-08-21T22:16:15;101878.59;;;18.38;68.40
63946;BME280;50122;56.330;43.838;2022-08-21T22:19:01;101873.56;;;18.32;68.44
63946;BME280;50122;56.330;43.838;2022-08-21T22:21:36;101859.78;;;18.22;68.39
63946;BME280;50122;56.330;43.838;2022-08-21T22:24:12;101865.22;;;18.20;68.47
63946;BME280;50122;56.330;43.838;2022-08-21T22:26:45;101877.59;;;18.23;68.58
63946;BME280;50122;56.330;43.838;2022-08-21T22:29:20;101895.50;;;18.21;69.07
63946;BME280;50122;56.330;43.838;2022-08-21T22:32:05;101892.91;;;18.19;68.94
63946;BME280;50122;56.330;43.838;2022-08-21T22:34:32;101882.53;;;18.13;69.33
63946;BME280;50122;56.330;43.838;2022-08-21T22:37:02;101889.72;;;18.13;69.17
63946;BME280;50122;56.330;43.838;2022-08-21T22:39:40;101894.91;;;18.16;69.46
63946;BME280;50122;56.330;43.838;2022-08-21T22:44:48;101877.50;;;18.07;69.55
63946;BME280;50122;56.330;43.838;2022-08-21T22:47:24;101887.22;;;18.08;69.43
63946;BME280;50122;56.330;43.838;2022-08-21T22:49:53;101893.63;;;18.05;69.44
63946;BME280;50122;56.330;43.838;2022-08-21T22:52:23;101900.63;;;18.08;69.49
63946;BME280;50122;56.330;43.838;2022-08-21T22:54:54;101901.56;;;18.07;69.45
63946;BME280;50122;56.330;43.838;2022-08-21T22:57:33;101901.84;;;18.01;69.67
63946;BME280;50122;56.330;43.838;2022-08-21T23:02:44;101882.22;;;17.83;70.31
63946;BME280;50122;56.330;43.838;2022-08-21T23:05:33;101892.59;;;17.89;69.69
63946;BME280;50122;56.330;43.838;2022-08-21T23:08:14;101899.66;;;17.92;70.38
63946;BME280;50122;56.330;43.838;2022-08-21T23:10:50;101896.28;;;17.86;70.19
63946;BME280;50122;56.330;43.838;2022-08-21T23:13:22;101894.66;;;17.84;69.93
63946;BME280;50122;56.330;43.838;2022-08-21T23:15:54;101902.53;;;17.87;70.66
63946;BME280;50122;56.330;43.838;2022-08-21T23:30:14;101910.97;;;17.78;70.80
63946;BME280;50122;56.330;43.838;2022-08-21T23:35:46;101906.78;;;17.72;71.08
63946;BME280;50122;56.330;43.838;2022-08-21T23:41:35;101908.09;;;17.63;71.33
63946;BME280;50122;56.330;43.838;2022-08-21T23:44:10;101910.78;;;17.63;71.40
63946;BME280;50122;56.330;43.838;2022-08-21T23:49:35;101923.50;;;17.58;71.25
63946;BME280;50122;56.330;43.838;2022-08-21T23:52:38;101921.84;;;17.56;71.25
63946;BME280;50122;56.330;43.838;2022-08-21T23:57:55;101901.84;;;17.45;71.26
